Time;durP1;ratioP1;P1;durP2;ratioP2;P2;SDS_P1;SDS_P2;PMS_P1;PMS_P2;Temp;Humidity;BMP_temperature;BMP_pressure;BME280_temperature;BME280_humidity;BME280_pressure;Samples;Min_cycle;Max_cycle;Signal;HPM_P1;HPM_P2
2021/12/09 00:00:43;;;;;;;67.72;34.92;;;;;;;;;;5044675;28;20053;-63
2021/12/09 00:03:11;;;;;;;66.68;35.58;;;;;;;;;;5042254;28;20034;-63
2021/12/09 00:05:37;;;;;;;76.75;38.63;;;;;;;;;;5043916;28;20481;-63
2021/12/09 00:08:04;;;;;;;88.32;41.30;;;;;;;;;;5045778;28;20021;-63
2021/12/09 00:10:30;;;;;;;86.93;44.22;;;;;;;;;;5045121;28;20033;-62
2021/12/09 00:12:57;;;;;;;81.97;41.53;;;;;;;;;;5038635;28;20437;-63
2021/12/09 00:15:23;;;;;;;86.47;42.97;;;;;;;;;;5034773;28;20060;-63
2021/12/09 00:17:50;;;;;;;85.32;43.03;;;;;;;;;;5035483;28;20025;-63
2021/12/09 00:20:18;;;;;;;73.93;38.05;;;;;;;;;;5034154;28;20523;-63
2021/12/09 00:22:45;;;;;;;70.93;37.60;;;;;;;;;;5035717;28;20033;-63
2021/12/09 00:25:11;;;;;;;66.20;36.53;;;;;;;;;;5034403;28;20048;-63
2021/12/09 00:27:37;;;;;;;70.38;36.70;;;;;;;;;;5036233;28;20104;-63
2021/12/09 00:30:05;;;;;;;65.20;35.83;;;;;;;;;;5035915;28;20053;-63
2021/12/09 00:32:31;;;;;;;75.35;38.17;;;;;;;;;;5035883;28;20492;-63
2021/12/09 00:34:57;;;;;;;76.57;40.45;;;;;;;;;;5035745;28;20040;-63
2021/12/09 00:37:38;;;;;;;75.80;38.83;;;;;;;;;;5035802;28;20082;-63
2021/12/09 00:40:05;;;;;;;74.85;39.45;;;;;;;;;;5034536;28;20117;-62
2021/12/09 00:42:50;;;;;;;79.15;40.13;;;;;;;;;;5035675;28;20100;-63
2021/12/09 00:45:16;;;;;;;75.90;39.72;;;;;;;;;;5035682;28;20104;-63
2021/12/09 00:47:43;;;;;;;86.00;42.15;;;;;;;;;;5035631;28;20055;-63
2021/12/09 00:50:09;;;;;;;100.15;45.70;;;;;;;;;;5035559;28;20022;-62
2021/12/09 00:52:36;;;;;;;98.03;44.55;;;;;;;;;;5031532;28;20056;-63
2021/12/09 00:55:03;;;;;;;92.25;46.38;;;;;;;;;;5034169;28;20042;-63
2021/12/09 00:57:29;;;;;;;93.57;46.20;;;;;;;;;;5035687;28;20044;-63
2021/12/09 00:59:55;;;;;;;105.70;47.42;;;;;;;;;;5035365;28;20418;-63
2021/12/09 01:02:22;;;;;;;99.35;44.58;;;;;;;;;;5034041;28;20104;-63
2021/12/09 01:04:48;;;;;;;93.75;42.70;;;;;;;;;;5034908;28;20401;-63
2021/12/09 01:07:15;;;;;;;81.63;40.97;;;;;;;;;;5034000;28;20040;-63
2021/12/09 01:09:41;;;;;;;72.03;38.95;;;;;;;;;;5033834;28;20053;-63
2021/12/09 01:12:08;;;;;;;73.07;38.05;;;;;;;;;;5035069;28;20071;-63
2021/12/09 01:14:37;;;;;;;70.38;36.42;;;;;;;;;;5034727;28;20120;-63
2021/12/09 01:17:04;;;;;;;67.10;37.65;;;;;;;;;;5035086;28;20504;-63
2021/12/09 01:19:30;;;;;;;74.35;38.17;;;;;;;;;;5033714;28;20057;-63
2021/12/09 01:21:56;;;;;;;76.85;38.75;;;;;;;;;;5034964;28;20047;-63
2021/12/09 01:24:23;;;;;;;75.45;39.50;;;;;;;;;;5033594;28;20029;-63
2021/12/09 01:26:50;;;;;;;74.95;39.63;;;;;;;;;;5034955;28;20025;-63
2021/12/09 01:29:20;;;;;;;96.50;42.53;;;;;;;;;;5034886;28;20040;-63
2021/12/09 01:31:59;;;;;;;82.20;39.35;;;;;;;;;;5033558;28;20112;-63
2021/12/09 01:34:25;;;;;;;68.30;36.78;;;;;;;;;;5033431;28;20523;-63
2021/12/09 01:36:52;;;;;;;76.75;35.72;;;;;;;;;;5034755;28;20478;-63
2021/12/09 01:39:20;;;;;;;88.40;39.78;;;;;;;;;;5034646;28;20033;-63
2021/12/09 01:41:47;;;;;;;72.55;36.25;;;;;;;;;;5034622;28;20031;-63
2021/12/09 01:44:14;;;;;;;81.10;38.13;;;;;;;;;;5034502;28;20025;-63
2021/12/09 01:46:41;;;;;;;74.68;35.95;;;;;;;;;;5034512;28;20107;-63
2021/12/09 01:49:07;;;;;;;65.07;31.73;;;;;;;;;;5034174;28;20120;-63
2021/12/09 01:51:34;;;;;;;61.90;32.05;;;;;;;;;;5042705;28;20053;-63
2021/12/09 01:54:00;;;;;;;54.30;30.08;;;;;;;;;;5036276;28;20040;-63
2021/12/09 01:56:27;;;;;;;55.13;29.80;;;;;;;;;;5053929;28;20104;-64
2021/12/09 01:59:03;;;;;;;54.03;30.45;;;;;;;;;;5053937;28;20025;-63
2021/12/09 02:01:30;;;;;;;56.72;32.10;;;;;;;;;;5054188;28;20032;-63
2021/12/09 02:03:56;;;;;;;56.92;33.05;;;;;;;;;;5036101;28;20123;-63
2021/12/09 02:06:23;;;;;;;70.53;33.00;;;;;;;;;;5053703;28;20104;-63
2021/12/09 02:08:49;;;;;;;61.50;32.83;;;;;;;;;;5036117;28;20071;-63
2021/12/09 02:11:15;;;;;;;69.10;35.42;;;;;;;;;;5035920;28;20033;-63
2021/12/09 02:13:42;;;;;;;75.82;38.95;;;;;;;;;;5054103;28;20377;-63
2021/12/09 02:16:10;;;;;;;77.75;38.92;;;;;;;;;;5053806;28;20021;-63
2021/12/09 02:18:36;;;;;;;66.18;35.60;;;;;;;;;;5035993;28;20385;-63
2021/12/09 02:21:13;;;;;;;74.35;36.65;;;;;;;;;;5053724;28;20036;-63
2021/12/09 02:23:41;;;;;;;86.75;40.42;;;;;;;;;;5035784;28;20137;-63
2021/12/09 02:26:07;;;;;;;64.68;31.85;;;;;;;;;;5053649;28;20064;-63
2021/12/09 02:28:34;;;;;;;64.38;32.13;;;;;;;;;;5053672;28;20476;-64
2021/12/09 02:31:00;;;;;;;58.78;30.27;;;;;;;;;;5053601;28;20108;-63
2021/12/09 02:33:26;;;;;;;55.33;28.80;;;;;;;;;;5035298;28;20029;-63
2021/12/09 02:35:52;;;;;;;59.28;30.15;;;;;;;;;;5053520;28;20021;-64
2021/12/09 02:38:19;;;;;;;62.17;33.00;;;;;;;;;;5053707;28;20108;-63
2021/12/09 02:40:47;;;;;;;61.90;32.08;;;;;;;;;;5035474;28;20025;-63
2021/12/09 02:43:13;;;;;;;63.72;33.10;;;;;;;;;;5035443;28;20041;-63
2021/12/09 02:45:42;;;;;;;63.05;31.80;;;;;;;;;;5053315;28;20036;-63
2021/12/09 02:48:08;;;;;;;56.53;31.23;;;;;;;;;;5053381;28;20366;-64
2021/12/09 02:50:35;;;;;;;64.32;31.58;;;;;;;;;;5052986;28;20079;-64
2021/12/09 02:53:01;;;;;;;54.55;27.95;;;;;;;;;;5053225;28;20033;-63
2021/12/09 02:55:27;;;;;;;58.20;29.77;;;;;;;;;;5035190;28;20033;-63
2021/12/09 02:57:54;;;;;;;52.13;27.60;;;;;;;;;;5053155;28;20021;-63
2021/12/09 03:00:21;;;;;;;48.75;27.08;;;;;;;;;;5035236;28;20060;-63
2021/12/09 03:02:47;;;;;;;51.25;27.75;;;;;;;;;;5035199;28;20025;-63
2021/12/09 03:05:14;;;;;;;49.17;27.48;;;;;;;;;;5053327;28;20086;-63
2021/12/09 03:07:42;;;;;;;51.13;27.33;;;;;;;;;;5035175;28;20040;-63
2021/12/09 03:10:10;;;;;;;48.10;27.35;;;;;;;;;;5052756;28;20096;-63
2021/12/09 03:12:40;;;;;;;52.42;28.35;;;;;;;;;;5053018;28;20021;-64
2021/12/09 03:15:07;;;;;;;49.45;27.65;;;;;;;;;;5052876;28;20115;-63
2021/12/09 03:17:33;;;;;;;53.13;27.77;;;;;;;;;;5052683;28;20457;-63
2021/12/09 03:20:00;;;;;;;45.78;25.35;;;;;;;;;;5052628;28;20029;-63
2021/12/09 03:22:26;;;;;;;43.22;24.05;;;;;;;;;;5052900;28;20021;-63
2021/12/09 03:24:52;;;;;;;44.20;24.30;;;;;;;;;;5053142;28;20112;-63
2021/12/09 03:27:19;;;;;;;48.72;26.27;;;;;;;;;;5052916;28;20049;-63
2021/12/09 03:29:45;;;;;;;46.15;25.17;;;;;;;;;;5034919;28;20376;-63
2021/12/09 03:32:13;;;;;;;48.03;26.50;;;;;;;;;;5034867;28;20043;-63
2021/12/09 03:34:40;;;;;;;46.63;25.02;;;;;;;;;;5052722;28;20447;-63
2021/12/09 03:37:10;;;;;;;48.10;25.85;;;;;;;;;;5034906;28;20053;-63
2021/12/09 03:39:37;;;;;;;46.42;25.33;;;;;;;;;;5052811;28;20080;-63
2021/12/09 03:42:04;;;;;;;43.80;24.67;;;;;;;;;;5052682;28;20111;-63
2021/12/09 03:44:30;;;;;;;45.22;25.95;;;;;;;;;;5034802;28;20029;-63
2021/12/09 03:47:00;;;;;;;49.85;27.38;;;;;;;;;;5052723;28;20033;-63
2021/12/09 03:49:26;;;;;;;41.95;25.15;;;;;;;;;;5034868;28;20064;-63
2021/12/09 03:51:54;;;;;;;43.38;25.27;;;;;;;;;;5034301;28;20045;-63
2021/12/09 03:54:20;;;;;;;44.67;23.90;;;;;;;;;;5052185;28;20448;-63
2021/12/09 03:56:47;;;;;;;52.70;26.50;;;;;;;;;;5052596;28;20481;-63
2021/12/09 03:59:14;;;;;;;48.22;27.58;;;;;;;;;;5052587;28;20029;-62
2021/12/09 04:01:41;;;;;;;46.90;25.05;;;;;;;;;;5052537;28;20104;-63
2021/12/09 04:04:07;;;;;;;48.50;25.63;;;;;;;;;;5052571;28;20037;-64
2021/12/09 04:06:34;;;;;;;44.33;24.65;;;;;;;;;;5052468;28;20036;-63
2021/12/09 04:09:00;;;;;;;41.40;25.10;;;;;;;;;;5052770;28;20035;-62
2021/12/09 04:11:27;;;;;;;47.67;25.70;;;;;;;;;;5052446;28;20025;-63
2021/12/09 04:13:54;;;;;;;49.45;25.38;;;;;;;;;;5052364;28;20477;-63
2021/12/09 04:16:21;;;;;;;46.15;25.65;;;;;;;;;;5052409;28;20466;-63
2021/12/09 04:18:47;;;;;;;42.78;23.95;;;;;;;;;;5052694;28;20112;-62
2021/12/09 04:21:14;;;;;;;44.85;24.67;;;;;;;;;;5052357;28;20029;-63
2021/12/09 04:23:41;;;;;;;44.85;26.15;;;;;;;;;;5052309;28;20033;-62
2021/12/09 04:26:07;;;;;;;49.58;26.00;;;;;;;;;;5052274;28;20060;-63
2021/12/09 04:28:34;;;;;;;46.63;24.67;;;;;;;;;;5052582;28;20052;-63
2021/12/09 04:31:00;;;;;;;47.20;25.98;;;;;;;;;;5055409;28;20025;-63
2021/12/09 04:33:27;;;;;;;54.00;28.40;;;;;;;;;;5055816;28;20060;-63
2021/12/09 04:35:54;;;;;;;40.70;22.27;;;;;;;;;;5055713;28;20064;-62
2021/12/09 04:38:20;;;;;;;37.88;22.15;;;;;;;;;;5037762;28;20460;-63
2021/12/09 04:40:46;;;;;;;45.28;23.48;;;;;;;;;;5037730;28;20021;-63
2021/12/09 04:43:12;;;;;;;40.35;22.75;;;;;;;;;;5055908;28;20087;-63
2021/12/09 04:45:40;;;;;;;47.72;24.40;;;;;;;;;;5055569;28;20047;-63
2021/12/09 04:48:07;;;;;;;42.35;22.27;;;;;;;;;;5037611;28;20071;-63
2021/12/09 04:50:33;;;;;;;38.22;21.00;;;;;;;;;;5055541;28;20100;-63
2021/12/09 04:53:00;;;;;;;34.58;20.17;;;;;;;;;;5055168;28;20033;-63
2021/12/09 04:55:26;;;;;;;33.63;20.30;;;;;;;;;;5055327;28;20474;-63
2021/12/09 04:57:52;;;;;;;32.05;18.85;;;;;;;;;;5055394;28;20053;-63
2021/12/09 05:00:21;;;;;;;35.22;19.60;;;;;;;;;;5055301;28;20025;-63
2021/12/09 05:03:05;;;;;;;31.90;18.70;;;;;;;;;;5055289;28;20041;-63
2021/12/09 05:05:39;;;;;;;37.95;19.98;;;;;;;;;;5055261;28;20036;-63
2021/12/09 05:08:07;;;;;;;36.35;19.88;;;;;;;;;;5055210;28;20017;-63
2021/12/09 05:10:50;;;;;;;37.47;20.52;;;;;;;;;;5055162;28;20081;-63
2021/12/09 05:13:16;;;;;;;39.17;20.55;;;;;;;;;;5055195;28;20055;-63
2021/12/09 05:15:42;;;;;;;38.47;21.77;;;;;;;;;;5055019;28;20094;-63
2021/12/09 05:18:09;;;;;;;35.00;21.77;;;;;;;;;;5037174;28;20457;-62
2021/12/09 05:20:35;;;;;;;35.58;19.70;;;;;;;;;;5054944;28;20059;-62
2021/12/09 05:23:01;;;;;;;35.30;19.70;;;;;;;;;;5036983;28;20078;-63
2021/12/09 05:25:27;;;;;;;32.95;18.45;;;;;;;;;;5055121;28;20053;-63
2021/12/09 05:27:54;;;;;;;31.02;17.60;;;;;;;;;;5036895;28;20487;-63
2021/12/09 05:30:24;;;;;;;33.25;18.45;;;;;;;;;;5054809;28;20032;-63
2021/12/09 05:32:51;;;;;;;38.05;19.15;;;;;;;;;;5036852;28;20025;-62
2021/12/09 05:35:18;;;;;;;28.55;17.35;;;;;;;;;;5054631;28;20029;-63
2021/12/09 05:37:45;;;;;;;35.72;19.38;;;;;;;;;;5054621;28;20036;-62
2021/12/09 05:40:12;;;;;;;45.08;22.73;;;;;;;;;;5054262;28;20381;-63
2021/12/09 05:42:39;;;;;;;39.10;22.17;;;;;;;;;;5053880;28;20059;-63
2021/12/09 05:45:06;;;;;;;39.78;21.08;;;;;;;;;;5054475;28;20116;-63
2021/12/09 05:47:32;;;;;;;38.53;20.27;;;;;;;;;;5054637;28;20093;-63
2021/12/09 05:49:58;;;;;;;41.45;19.70;;;;;;;;;;5054411;28;20025;-63
2021/12/09 05:52:24;;;;;;;38.67;20.83;;;;;;;;;;5053799;28;20065;-63
2021/12/09 05:54:51;;;;;;;35.25;20.98;;;;;;;;;;5054202;28;20041;-63
2021/12/09 05:57:17;;;;;;;36.40;20.00;;;;;;;;;;5053895;28;20119;-63
2021/12/09 05:59:43;;;;;;;116.35;50.63;;;;;;;;;;5036313;28;20052;-63
2021/12/09 06:02:11;;;;;;;121.65;55.40;;;;;;;;;;5053833;28;20024;-63
2021/12/09 06:04:37;;;;;;;98.00;44.47;;;;;;;;;;5054077;28;20032;-63
2021/12/09 06:07:04;;;;;;;55.33;28.92;;;;;;;;;;5035997;28;20024;-63
2021/12/09 06:09:32;;;;;;;52.80;28.65;;;;;;;;;;5053637;28;20049;-63
2021/12/09 06:11:58;;;;;;;53.33;29.73;;;;;;;;;;5053919;28;20477;-63
2021/12/09 06:14:25;;;;;;;43.38;23.33;;;;;;;;;;5053787;28;20029;-63
2021/12/09 06:16:51;;;;;;;35.90;20.10;;;;;;;;;;5053790;28;20064;-62
2021/12/09 06:19:17;;;;;;;33.05;17.50;;;;;;;;;;5053878;28;20028;-62
2021/12/09 06:21:44;;;;;;;30.05;17.95;;;;;;;;;;5036082;28;20381;-62
2021/12/09 06:24:10;;;;;;;36.97;20.48;;;;;;;;;;5053675;28;20052;-62
2021/12/09 06:26:36;;;;;;;47.03;23.27;;;;;;;;;;5053299;28;20104;-62
2021/12/09 06:29:05;;;;;;;51.35;31.88;;;;;;;;;;5035736;28;20408;-62
2021/12/09 06:31:32;;;;;;;47.63;26.05;;;;;;;;;;5053577;28;20064;-62
2021/12/09 06:33:58;;;;;;;39.42;22.33;;;;;;;;;;5035537;28;20025;-62
2021/12/09 06:36:24;;;;;;;44.20;25.70;;;;;;;;;;5053406;28;20076;-62
2021/12/09 06:38:50;;;;;;;38.00;22.40;;;;;;;;;;5053057;28;20025;-62
2021/12/09 06:41:16;;;;;;;41.28;21.73;;;;;;;;;;5066347;28;20032;-62
2021/12/09 06:43:43;;;;;;;44.85;25.05;;;;;;;;;;5053686;28;20024;-62
2021/12/09 06:46:10;;;;;;;40.80;22.33;;;;;;;;;;5055442;28;20074;-62
2021/12/09 06:48:37;;;;;;;32.80;18.88;;;;;;;;;;5073078;28;20025;-61
2021/12/09 06:51:04;;;;;;;30.30;17.85;;;;;;;;;;5054661;28;20052;-64
2021/12/09 06:53:30;;;;;;;37.25;19.10;;;;;;;;;;5072000;28;20059;-63
2021/12/09 06:55:57;;;;;;;36.13;19.35;;;;;;;;;;5054753;28;20090;-63
2021/12/09 06:58:24;;;;;;;43.50;22.35;;;;;;;;;;5072454;28;20025;-63
2021/12/09 07:00:51;;;;;;;39.67;23.05;;;;;;;;;;5054932;28;20068;-63
2021/12/09 07:03:17;;;;;;;65.47;34.47;;;;;;;;;;5054849;28;20036;-62
2021/12/09 07:05:44;;;;;;;85.43;45.50;;;;;;;;;;5072936;28;20086;-62
2021/12/09 07:08:11;;;;;;;93.80;48.95;;;;;;;;;;5072785;28;20032;-62
2021/12/09 07:10:37;;;;;;;78.75;43.58;;;;;;;;;;5072844;28;20035;-62
2021/12/09 07:13:05;;;;;;;69.03;35.30;;;;;;;;;;5072744;28;20021;-62
2021/12/09 07:15:31;;;;;;;41.15;23.30;;;;;;;;;;5054552;28;20033;-62
2021/12/09 07:17:58;;;;;;;38.17;20.02;;;;;;;;;;5072683;28;20029;-62
2021/12/09 07:20:24;;;;;;;33.80;18.58;;;;;;;;;;5072619;28;20095;-62
2021/12/09 07:22:51;;;;;;;34.95;18.85;;;;;;;;;;5054623;28;20025;-62
2021/12/09 07:25:19;;;;;;;40.75;19.80;;;;;;;;;;5072919;28;20072;-62
2021/12/09 07:27:45;;;;;;;40.75;21.85;;;;;;;;;;5072613;28;20028;-62
2021/12/09 07:30:12;;;;;;;55.80;31.15;;;;;;;;;;5072524;28;20484;-62
2021/12/09 07:32:38;;;;;;;83.70;43.38;;;;;;;;;;5072583;28;20499;-62
2021/12/09 07:35:06;;;;;;;94.15;49.65;;;;;;;;;;5072381;28;20108;-62
2021/12/09 07:37:32;;;;;;;85.28;42.13;;;;;;;;;;5072532;28;20090;-62
2021/12/09 07:39:58;;;;;;;88.03;44.30;;;;;;;;;;5054611;28;20032;-62
2021/12/09 07:42:25;;;;;;;77.80;37.47;;;;;;;;;;5054496;28;20512;-62
2021/12/09 07:44:51;;;;;;;75.68;37.05;;;;;;;;;;5072743;28;20115;-62
2021/12/09 07:47:18;;;;;;;69.57;33.38;;;;;;;;;;5053934;28;20453;-62
2021/12/09 07:49:45;;;;;;;61.53;29.92;;;;;;;;;;5062145;28;20052;-62
2021/12/09 07:52:11;;;;;;;52.25;28.50;;;;;;;;;;5092798;28;20065;-62
2021/12/09 07:54:38;;;;;;;69.57;38.97;;;;;;;;;;5091309;28;20357;-63
2021/12/09 07:57:04;;;;;;;83.03;46.05;;;;;;;;;;5091817;28;20089;-63
2021/12/09 07:59:30;;;;;;;88.45;51.38;;;;;;;;;;5092399;28;20066;-63
2021/12/09 08:01:56;;;;;;;91.18;49.30;;;;;;;;;;5092440;28;20024;-64
2021/12/09 08:04:23;;;;;;;54.85;27.73;;;;;;;;;;5092753;28;20123;-63
2021/12/09 08:06:49;;;;;;;53.97;27.95;;;;;;;;;;5096093;28;20149;-63
2021/12/09 08:09:15;;;;;;;68.38;35.67;;;;;;;;;;5095272;28;20115;-65
2021/12/09 08:11:43;;;;;;;87.30;45.10;;;;;;;;;;5095102;28;20449;-64
2021/12/09 08:14:11;;;;;;;96.57;47.97;;;;;;;;;;5096171;28;20464;-64
2021/12/09 08:16:38;;;;;;;95.28;50.55;;;;;;;;;;5096251;28;20115;-63
2021/12/09 08:19:05;;;;;;;80.85;41.03;;;;;;;;;;5096052;28;20028;-64
2021/12/09 08:21:35;;;;;;;60.35;30.92;;;;;;;;;;5096215;28;20786;-63
2021/12/09 08:24:02;;;;;;;55.33;28.85;;;;;;;;;;5095004;28;20044;-63
2021/12/09 08:26:29;;;;;;;64.80;33.75;;;;;;;;;;5096203;28;20024;-63
2021/12/09 08:28:55;;;;;;;89.57;44.65;;;;;;;;;;5096080;28;20056;-64
2021/12/09 08:31:22;;;;;;;108.70;52.10;;;;;;;;;;5096077;28;20487;-63
2021/12/09 08:33:48;;;;;;;57.38;29.67;;;;;;;;;;5095308;28;20103;-64
2021/12/09 08:36:14;;;;;;;54.28;25.27;;;;;;;;;;5094895;28;20028;-63
2021/12/09 08:38:41;;;;;;;47.97;22.17;;;;;;;;;;5094539;28;20042;-63
2021/12/09 08:41:07;;;;;;;43.83;21.05;;;;;;;;;;5094047;28;20062;-63
2021/12/09 08:43:33;;;;;;;57.55;27.27;;;;;;;;;;5092574;28;20024;-63
2021/12/09 08:46:00;;;;;;;77.60;36.97;;;;;;;;;;5094833;28;20024;-63
2021/12/09 08:48:27;;;;;;;72.72;38.45;;;;;;;;;;5093969;28;20107;-62
2021/12/09 08:50:53;;;;;;;44.80;24.65;;;;;;;;;;5095222;28;20055;-63
2021/12/09 08:53:22;;;;;;;32.83;17.80;;;;;;;;;;5094901;28;20380;-62
2021/12/09 08:55:49;;;;;;;36.80;18.73;;;;;;;;;;5094060;28;20094;-63
2021/12/09 08:58:16;;;;;;;53.53;27.88;;;;;;;;;;5095446;28;20036;-63
2021/12/09 09:00:43;;;;;;;71.82;34.60;;;;;;;;;;5094152;28;20055;-64
2021/12/09 09:03:09;;;;;;;63.28;33.45;;;;;;;;;;5095300;28;20614;-64
2021/12/09 09:05:36;;;;;;;47.22;24.80;;;;;;;;;;5095343;28;20028;-64
2021/12/09 09:08:04;;;;;;;55.78;29.40;;;;;;;;;;5095284;28;20045;-64
2021/12/09 09:10:32;;;;;;;40.15;21.13;;;;;;;;;;5093848;28;20122;-65
2021/12/09 09:12:58;;;;;;;59.50;27.40;;;;;;;;;;5094873;28;20444;-65
2021/12/09 09:15:25;;;;;;;72.93;34.30;;;;;;;;;;5092643;28;20032;-64
2021/12/09 09:17:52;;;;;;;67.90;28.80;;;;;;;;;;5092940;28;20110;-64
2021/12/09 09:20:20;;;;;;;64.15;23.00;;;;;;;;;;5094858;28;20124;-64
2021/12/09 09:22:46;;;;;;;88.80;32.90;;;;;;;;;;5094663;28;20495;-65
2021/12/09 09:25:17;;;;;;;80.22;28.48;;;;;;;;;;5092546;28;20131;-64
2021/12/09 09:27:44;;;;;;;48.58;17.73;;;;;;;;;;5093027;28;20020;-64
2021/12/09 09:30:17;;;;;;;43.10;15.82;;;;;;;;;;5095146;28;20065;-64
2021/12/09 09:32:44;;;;;;;33.60;13.82;;;;;;;;;;5093395;28;20062;-65
2021/12/09 09:35:10;;;;;;;45.00;16.95;;;;;;;;;;5093969;28;20464;-65
2021/12/09 09:37:37;;;;;;;25.55;12.80;;;;;;;;;;5093853;28;20097;-65
2021/12/09 09:40:06;;;;;;;39.30;16.80;;;;;;;;;;5094553;28;20080;-64
2021/12/09 09:42:55;;;;;;;62.15;21.55;;;;;;;;;;5093174;28;20024;-63
2021/12/09 09:45:19;;;;;;;22.70;12.35;;;;;;;;;;5093306;28;20032;-62
2021/12/09 09:47:45;;;;;;;21.58;11.10;;;;;;;;;;5091320;28;20425;-62
2021/12/09 09:50:12;;;;;;;14.38;8.27;;;;;;;;;;5092961;28;20062;-63
2021/12/09 09:52:40;;;;;;;16.30;10.10;;;;;;;;;;5109668;28;20055;-62
2021/12/09 09:55:10;;;;;;;24.27;10.63;;;;;;;;;;5092715;28;20171;-62
2021/12/09 09:57:36;;;;;;;19.60;9.85;;;;;;;;;;5093914;28;20152;-62
2021/12/09 10:00:05;;;;;;;17.40;9.15;;;;;;;;;;5094273;28;20038;-64
2021/12/09 10:02:31;;;;;;;19.10;9.63;;;;;;;;;;5093941;28;20067;-62
2021/12/09 10:05:01;;;;;;;27.90;11.20;;;;;;;;;;5093812;28;20032;-62
2021/12/09 10:07:28;;;;;;;64.85;18.48;;;;;;;;;;5092286;28;20028;-64
2021/12/09 10:09:54;;;;;;;20.45;10.60;;;;;;;;;;5092314;28;20024;-63
2021/12/09 10:12:21;;;;;;;18.02;10.15;;;;;;;;;;5092637;28;20369;-64
2021/12/09 10:14:52;;;;;;;29.75;11.98;;;;;;;;;;5091842;28;20028;-63
2021/12/09 10:17:19;;;;;;;49.15;17.40;;;;;;;;;;5093639;28;20032;-63
2021/12/09 10:19:51;;;;;;;27.48;11.85;;;;;;;;;;5087268;28;20414;-63
2021/12/09 10:22:22;;;;;;;32.58;15.00;;;;;;;;;;5093707;28;20066;-63
2021/12/09 10:24:50;;;;;;;42.50;16.05;;;;;;;;;;5093604;28;20031;-63
2021/12/09 10:27:45;;;;;;;38.38;15.18;;;;;;;;;;5093355;28;20016;-64
2021/12/09 10:30:14;;;;;;;30.08;13.57;;;;;;;;;;5090689;28;20040;-62
2021/12/09 10:32:41;;;;;;;46.00;18.83;;;;;;;;;;5090400;28;20047;-62
2021/12/09 10:35:09;;;;;;;41.05;17.90;;;;;;;;;;5092200;28;20476;-62
2021/12/09 10:37:37;;;;;;;47.90;18.38;;;;;;;;;;5093643;28;20028;-62
2021/12/09 10:40:08;;;;;;;34.85;17.08;;;;;;;;;;5093646;28;20052;-62
2021/12/09 10:42:36;;;;;;;45.05;20.90;;;;;;;;;;5093669;28;20424;-62
2021/12/09 10:45:02;;;;;;;67.93;30.83;;;;;;;;;;5093526;28;20077;-62
2021/12/09 10:50:17;;;;;;;59.15;29.27;;;;;;;;;;5093131;28;20086;-62
2021/12/09 10:52:48;;;;;;;75.40;34.40;;;;;;;;;;5092162;28;20028;-63
2021/12/09 10:55:17;;;;;;;94.43;46.05;;;;;;;;;;5093444;28;20107;-63
2021/12/09 10:57:44;;;;;;;110.00;50.20;;;;;;;;;;5093296;28;20024;-62
2021/12/09 11:00:16;;;;;;;102.55;49.55;;;;;;;;;;5093256;28;20032;-63
2021/12/09 11:03:03;;;;;;;83.85;43.95;;;;;;;;;;5092124;28;20027;-62
2021/12/09 11:05:30;;;;;;;84.97;42.72;;;;;;;;;;5091973;28;20024;-63
2021/12/09 11:08:12;;;;;;;77.32;41.08;;;;;;;;;;5093288;28;20020;-63
2021/12/09 11:10:45;;;;;;;83.50;42.60;;;;;;;;;;5093011;28;20028;-62
2021/12/09 11:13:12;;;;;;;87.95;43.65;;;;;;;;;;5091357;28;20078;-63
2021/12/09 11:16:05;;;;;;;84.97;43.67;;;;;;;;;;5093001;28;20024;-63
2021/12/09 11:18:35;;;;;;;83.05;40.92;;;;;;;;;;5085299;28;20091;-62
2021/12/09 11:21:04;;;;;;;71.97;33.40;;;;;;;;;;5092320;28;20380;-62
2021/12/09 11:23:38;;;;;;;60.55;27.08;;;;;;;;;;5091159;28;20031;-63
2021/12/09 11:26:33;;;;;;;66.43;29.13;;;;;;;;;;5092848;28;20380;-62
2021/12/09 11:29:01;;;;;;;62.88;30.55;;;;;;;;;;5091347;28;20449;-62
2021/12/09 11:31:32;;;;;;;58.22;25.38;;;;;;;;;;5091410;28;20447;-62
2021/12/09 11:34:04;;;;;;;46.60;25.03;;;;;;;;;;5071065;28;20098;-62
2021/12/09 11:36:44;;;;;;;48.58;25.98;;;;;;;;;;5072564;28;20025;-62
2021/12/09 11:39:16;;;;;;;45.75;20.23;;;;;;;;;;5072045;28;20381;-63
2021/12/09 11:41:43;;;;;;;45.85;22.08;;;;;;;;;;5076565;28;20043;-63
2021/12/09 11:44:10;;;;;;;43.92;21.95;;;;;;;;;;5092576;28;20418;-62
2021/12/09 11:46:40;;;;;;;43.33;21.83;;;;;;;;;;5096735;28;20024;-65
2021/12/09 11:49:07;;;;;;;54.60;27.45;;;;;;;;;;5095946;28;20024;-65
2021/12/09 11:51:33;;;;;;;89.22;42.55;;;;;;;;;;5095383;28;20468;-64
2021/12/09 11:54:04;;;;;;;129.90;60.53;;;;;;;;;;5096524;28;20457;-64
2021/12/09 11:56:42;;;;;;;87.40;46.08;;;;;;;;;;5096755;28;20031;-64
2021/12/09 12:11:07;;;;;;;90.30;48.92;;;;;;;;;;5095464;28;20082;-62
2021/12/09 12:11:17;;;;;;;89.55;45.40;;;;;;;;;;5095749;28;20476;-62
2021/12/09 12:13:55;;;;;;;71.78;40.45;;;;;;;;;;5096049;28;20461;-62
2021/12/09 12:19:42;;;;;;;76.65;38.90;;;;;;;;;;5095790;28;20073;-62
2021/12/09 12:22:42;;;;;;;98.70;47.30;;;;;;;;;;5094896;28;20028;-62
2021/12/09 12:25:26;;;;;;;69.93;34.15;;;;;;;;;;5089538;28;20032;-62
2021/12/09 12:28:09;;;;;;;74.20;36.53;;;;;;;;;;5095790;28;20032;-62
2021/12/09 12:30:58;;;;;;;55.22;28.85;;;;;;;;;;5096078;28;20054;-62
2021/12/09 12:33:50;;;;;;;76.95;38.65;;;;;;;;;;5096256;28;20020;-62
2021/12/09 12:36:28;;;;;;;78.38;38.92;;;;;;;;;;5096087;28;20028;-62
2021/12/09 12:39:15;;;;;;;85.43;44.28;;;;;;;;;;5095670;28;20028;-62
2021/12/09 12:45:03;;;;;;;98.35;50.60;;;;;;;;;;5095859;28;20570;-62
2021/12/09 12:47:37;;;;;;;109.13;54.85;;;;;;;;;;5095902;28;20111;-62
2021/12/09 12:50:08;;;;;;;108.70;55.70;;;;;;;;;;5095371;28;20082;-62
2021/12/09 12:52:35;;;;;;;88.60;44.80;;;;;;;;;;5095613;28;20024;-62
2021/12/09 12:55:24;;;;;;;96.50;50.60;;;;;;;;;;5094260;28;20384;-62
2021/12/09 12:57:53;;;;;;;81.53;45.25;;;;;;;;;;5094359;28;20506;-62
2021/12/09 13:00:24;;;;;;;84.22;45.88;;;;;;;;;;5095430;28;20111;-63
2021/12/09 13:13:56;;;;;;;82.20;39.00;;;;;;;;;;5095361;28;20376;-62
2021/12/09 13:16:22;;;;;;;94.32;45.60;;;;;;;;;;5091605;28;20463;-61
2021/12/09 13:21:37;;;;;;;105.68;52.47;;;;;;;;;;5095127;28;20035;-62
2021/12/09 13:27:18;;;;;;;112.95;61.28;;;;;;;;;;5082655;28;20036;-63
2021/12/09 13:32:44;;;;;;;85.30;44.85;;;;;;;;;;5094913;28;20032;-61
2021/12/09 13:35:14;;;;;;;88.07;45.20;;;;;;;;;;5094885;28;20055;-61
2021/12/09 13:38:13;;;;;;;68.78;35.88;;;;;;;;;;5093502;28;20415;-63
2021/12/09 13:46:56;;;;;;;77.90;33.67;;;;;;;;;;5094723;28;20248;-63
2021/12/09 13:54:25;;;;;;;73.25;32.25;;;;;;;;;;5094501;28;20115;-61
2021/12/09 13:57:09;;;;;;;68.20;31.35;;;;;;;;;;5094832;28;20569;-61
2021/12/09 13:59:36;;;;;;;69.03;32.53;;;;;;;;;;5094502;28;20452;-61
2021/12/09 14:02:13;;;;;;;62.13;27.83;;;;;;;;;;5093540;28;20063;-61
2021/12/09 14:04:39;;;;;;;61.60;29.70;;;;;;;;;;5092772;28;20024;-61
2021/12/09 14:09:35;;;;;;;69.25;37.03;;;;;;;;;;5094244;28;20043;-61
2021/12/09 14:12:03;;;;;;;64.93;33.55;;;;;;;;;;5094172;28;20364;-61
2021/12/09 14:14:42;;;;;;;63.38;33.78;;;;;;;;;;5093858;28;20499;-62
2021/12/09 14:17:13;;;;;;;49.80;29.80;;;;;;;;;;5094152;28;20036;-63
2021/12/09 14:22:30;;;;;;;44.92;25.60;;;;;;;;;;5094074;28;20035;-62
2021/12/09 14:25:00;;;;;;;46.47;25.63;;;;;;;;;;5094040;28;20127;-61
2021/12/09 14:27:26;;;;;;;48.15;26.42;;;;;;;;;;5094205;28;20073;-62
2021/12/09 14:29:53;;;;;;;49.33;26.08;;;;;;;;;;5093842;28;20091;-61
2021/12/09 14:32:25;;;;;;;51.28;27.58;;;;;;;;;;5093778;28;20027;-62
2021/12/09 14:34:52;;;;;;;48.13;26.80;;;;;;;;;;5093768;28;20020;-62
2021/12/09 14:37:19;;;;;;;63.75;31.50;;;;;;;;;;5093812;28;20464;-62
2021/12/09 14:39:46;;;;;;;50.25;30.35;;;;;;;;;;5093739;28;20027;-62
2021/12/09 14:42:20;;;;;;;49.53;31.50;;;;;;;;;;5093646;28;20020;-62
2021/12/09 14:45:00;;;;;;;53.45;33.90;;;;;;;;;;5093670;28;20417;-62
2021/12/09 14:47:27;;;;;;;66.03;35.17;;;;;;;;;;5093661;28;20012;-62
2021/12/09 14:49:55;;;;;;;72.57;41.00;;;;;;;;;;5092030;28;20047;-62
2021/12/09 14:52:27;;;;;;;95.15;49.08;;;;;;;;;;5093464;28;20028;-62
2021/12/09 14:55:09;;;;;;;90.95;48.38;;;;;;;;;;5093109;28;20376;-62
2021/12/09 14:57:35;;;;;;;85.55;47.08;;;;;;;;;;5092190;28;20032;-62
2021/12/09 15:00:02;;;;;;;86.70;45.88;;;;;;;;;;5093622;28;20062;-62
2021/12/09 15:02:35;;;;;;;71.38;40.75;;;;;;;;;;5093259;28;20023;-62
2021/12/09 15:05:16;;;;;;;64.50;35.92;;;;;;;;;;5093413;28;20024;-61
2021/12/09 15:07:50;;;;;;;62.70;35.45;;;;;;;;;;5093366;28;20028;-61
2021/12/09 15:10:18;;;;;;;59.72;35.22;;;;;;;;;;5093351;28;20032;-61
2021/12/09 15:12:45;;;;;;;61.28;34.20;;;;;;;;;;5093518;28;20024;-61
2021/12/09 15:15:21;;;;;;;62.97;33.97;;;;;;;;;;5092276;28;20111;-61
2021/12/09 15:17:54;;;;;;;51.83;26.98;;;;;;;;;;5093144;28;20035;-62
2021/12/09 15:20:21;;;;;;;49.83;29.55;;;;;;;;;;5093129;28;20020;-62